createdAt,value
2023-05-05T00:00:57.866Z,72.40
2023-05-05T00:03:25.076Z,72.20
2023-05-05T00:05:52.761Z,72.00
2023-05-05T00:08:19.393Z,72.50
2023-05-05T00:10:46.376Z,72.50
2023-05-05T00:13:13.735Z,72.80
2023-05-05T00:15:43.833Z,72.80
2023-05-05T00:18:10.880Z,72.80
2023-05-05T00:20:37.605Z,72.60
2023-05-05T00:23:04.428Z,72.90
2023-05-05T00:25:31.136Z,72.80
2023-05-05T00:27:57.756Z,72.60
2023-05-05T00:30:24.554Z,72.60
2023-05-05T00:32:51.363Z,73.00
2023-05-05T00:35:18.057Z,72.50
2023-05-05T00:37:44.789Z,73.10
2023-05-05T00:40:11.635Z,73.10
2023-05-05T00:42:39.675Z,73.20
2023-05-05T00:45:06.403Z,73.00
2023-05-05T00:47:33.055Z,72.50
2023-05-05T00:49:59.731Z,72.70
2023-05-05T00:52:26.869Z,73.00
2023-05-05T00:55:01.076Z,72.80
2023-05-05T00:57:28.575Z,73.00
2023-05-05T00:59:55.732Z,72.90
2023-05-05T01:02:22.818Z,72.70
2023-05-05T01:04:49.413Z,73.00
2023-05-05T01:07:31.044Z,73.40
2023-05-05T01:10:18.129Z,73.60
2023-05-05T01:12:48.854Z,73.40
2023-05-05T01:15:22.507Z,73.20
2023-05-05T01:18:09.760Z,73.00
2023-05-05T01:20:46.307Z,73.20
2023-05-05T01:23:16.864Z,73.30
2023-05-05T01:26:00.592Z,73.60
2023-05-05T01:28:33.286Z,73.70
2023-05-05T01:31:09.151Z,73.50
2023-05-05T01:33:37.766Z,74.00
2023-05-05T01:36:07.680Z,73.80
2023-05-05T01:38:38.046Z,74.20
2023-05-05T01:41:09.085Z,74.20
2023-05-05T01:43:35.807Z,74.10
2023-05-05T01:46:03.038Z,74.30
2023-05-05T01:48:30.851Z,74.20
2023-05-05T01:50:57.468Z,73.90
2023-05-05T01:53:24.532Z,74.00
2023-05-05T01:55:52.159Z,74.60
2023-05-05T01:58:21.318Z,74.70
2023-05-05T02:00:48.953Z,74.90
2023-05-05T02:03:15.935Z,74.80
2023-05-05T02:05:43.101Z,75.00
2023-05-05T02:08:10.856Z,74.80
2023-05-05T02:10:40.831Z,75.10
2023-05-05T02:13:08.218Z,75.10
2023-05-05T02:15:35.716Z,75.30
2023-05-05T02:18:03.283Z,75.10
2023-05-05T02:20:31.002Z,75.30
2023-05-05T02:22:58.415Z,75.50
2023-05-05T02:25:27.839Z,75.30
2023-05-05T02:27:55.522Z,75.10
2023-05-05T02:30:22.459Z,75.10
2023-05-05T02:32:52.123Z,74.80
2023-05-05T02:35:22.910Z,75.00
2023-05-05T02:37:59.525Z,75.10
2023-05-05T02:40:28.496Z,75.20
2023-05-05T02:42:56.297Z,75.30
2023-05-05T02:45:23.330Z,75.30
2023-05-05T02:47:49.961Z,75.60
2023-05-05T02:50:16.929Z,75.60
2023-05-05T02:52:43.806Z,75.70
2023-05-05T02:55:10.965Z,75.90
2023-05-05T02:57:42.503Z,76.10
2023-05-05T03:00:14.894Z,76.10
2023-05-05T03:02:46.587Z,76.00
2023-05-05T03:05:17.316Z,76.00
2023-05-05T03:08:04.625Z,75.70
2023-05-05T03:10:34.798Z,76.50
2023-05-05T03:13:02.651Z,76.30
2023-05-05T03:15:34.448Z,76.50
2023-05-05T03:18:02.176Z,76.40
2023-05-05T03:20:28.979Z,76.30
2023-05-05T03:22:55.762Z,76.20
2023-05-05T03:25:41.023Z,76.30
2023-05-05T03:28:07.647Z,76.40
2023-05-05T03:30:34.268Z,76.70
2023-05-05T03:33:00.972Z,76.50
2023-05-05T03:35:27.929Z,76.60
2023-05-05T03:37:55.625Z,76.70
2023-05-05T03:40:32.649Z,76.50
2023-05-05T03:43:07.999Z,76.90
2023-05-05T03:45:34.656Z,76.80
2023-05-05T03:48:01.678Z,76.70
2023-05-05T03:50:28.315Z,76.40
2023-05-05T03:52:54.974Z,76.70
2023-05-05T03:55:21.571Z,76.60
2023-05-05T03:57:48.220Z,76.40
2023-05-05T04:00:15.180Z,76.50
2023-05-05T04:02:42.082Z,76.40
2023-05-05T04:05:08.985Z,76.20
2023-05-05T04:07:35.575Z,76.50
2023-05-05T04:10:02.225Z,77.30
2023-05-05T04:12:28.825Z,76.80
2023-05-05T04:14:55.425Z,76.80
2023-05-05T04:17:21.987Z,76.70
2023-05-05T04:19:48.680Z,77.80
2023-05-05T04:22:15.267Z,77.20
2023-05-05T04:24:41.957Z,76.90
2023-05-05T04:27:08.545Z,76.90
2023-05-05T04:29:35.220Z,77.00
2023-05-05T04:32:01.853Z,77.40
2023-05-05T04:34:28.477Z,77.70
2023-05-05T04:36:55.041Z,77.80
2023-05-05T04:39:21.879Z,78.10
2023-05-05T04:41:48.560Z,77.60
2023-05-05T04:44:15.497Z,77.60
2023-05-05T04:46:42.142Z,77.50
2023-05-05T04:49:09.192Z,77.10
2023-05-05T04:51:35.784Z,77.40
2023-05-05T04:54:02.407Z,77.50
2023-05-05T04:56:32.053Z,78.20
2023-05-05T04:58:58.650Z,77.60
2023-05-05T05:01:25.414Z,78.10
2023-05-05T05:03:53.060Z,77.70
2023-05-05T05:06:19.777Z,78.40
2023-05-05T05:08:46.379Z,78.40
2023-05-05T05:11:12.977Z,77.50
2023-05-05T05:13:39.610Z,78.10
2023-05-05T05:16:06.515Z,77.50
2023-05-05T05:18:33.115Z,77.20
2023-05-05T05:20:59.725Z,76.70
2023-05-05T05:23:26.334Z,76.70
2023-05-05T05:25:52.963Z,76.70
2023-05-05T05:28:19.527Z,75.80
2023-05-05T05:30:46.156Z,76.50
2023-05-05T05:33:12.822Z,76.20
2023-05-05T05:35:39.553Z,76.80
2023-05-05T05:38:06.285Z,76.50
2023-05-05T05:40:32.896Z,76.50
2023-05-05T05:42:59.564Z,76.60
2023-05-05T05:45:26.304Z,76.20
2023-05-05T05:47:52.985Z,76.60
2023-05-05T05:50:19.628Z,75.50
2023-05-05T05:52:46.301Z,76.00
2023-05-05T05:55:12.907Z,75.20
2023-05-05T05:57:39.522Z,75.10
2023-05-05T06:00:06.754Z,74.70
2023-05-05T06:02:33.916Z,74.50
2023-05-05T06:05:00.688Z,73.80
2023-05-05T06:07:27.371Z,72.70
2023-05-05T06:09:53.996Z,72.50
2023-05-05T06:12:20.957Z,72.40
2023-05-05T06:14:47.589Z,72.20
2023-05-05T06:17:14.206Z,72.30
2023-05-05T06:19:41.066Z,72.40
2023-05-05T06:22:07.698Z,72.00
2023-05-05T06:24:34.303Z,71.50
2023-05-05T06:27:02.274Z,71.60
2023-05-05T06:29:28.942Z,71.30
2023-05-05T06:31:55.727Z,70.40
2023-05-05T06:34:22.364Z,70.70
2023-05-05T06:36:48.998Z,69.90
2023-05-05T06:39:16.192Z,70.00
2023-05-05T06:41:42.959Z,69.00
2023-05-05T06:44:11.260Z,67.00
2023-05-05T06:46:38.043Z,68.20
2023-05-05T06:49:04.658Z,67.40
2023-05-05T06:51:31.677Z,68.60
2023-05-05T06:53:58.353Z,67.00
2023-05-05T06:56:25.137Z,66.20
2023-05-05T06:58:51.766Z,66.40
2023-05-05T07:01:18.391Z,65.80
2023-05-05T07:03:45.082Z,64.40
2023-05-05T07:06:11.829Z,65.50
2023-05-05T07:08:38.428Z,65.20
2023-05-05T07:11:05.045Z,65.70
2023-05-05T07:13:31.695Z,66.10
2023-05-05T07:15:58.450Z,66.50
2023-05-05T07:18:25.102Z,66.30
2023-05-05T07:20:51.757Z,67.20
2023-05-05T07:23:18.439Z,67.40
2023-05-05T07:25:45.190Z,68.30
2023-05-05T07:28:11.789Z,72.80
2023-05-05T07:30:38.410Z,67.10
2023-05-05T07:33:05.165Z,65.70
2023-05-05T07:35:31.828Z,63.50
2023-05-05T07:37:58.440Z,64.90
2023-05-05T07:40:25.917Z,66.30
2023-05-05T07:42:54.706Z,66.20
2023-05-05T07:45:21.472Z,64.50
2023-05-05T07:47:48.173Z,64.10
2023-05-05T07:50:15.304Z,64.20
2023-05-05T07:52:46.471Z,65.00
2023-05-05T07:55:16.451Z,65.00
2023-05-05T07:57:43.094Z,64.90
2023-05-05T08:00:10.264Z,63.50
2023-05-05T08:02:37.193Z,64.30
2023-05-05T08:05:04.493Z,64.80
2023-05-05T08:07:31.141Z,64.20
2023-05-05T08:09:57.772Z,64.10
2023-05-05T08:12:24.948Z,64.30
2023-05-05T08:14:51.495Z,63.90
2023-05-05T08:17:18.400Z,63.20
2023-05-05T08:19:44.971Z,64.10
2023-05-05T08:22:11.600Z,64.90
2023-05-05T08:24:38.197Z,64.50
2023-05-05T08:27:04.823Z,64.00
2023-05-05T08:29:31.425Z,64.30
2023-05-05T08:31:58.182Z,64.50
2023-05-05T08:34:24.807Z,64.40
2023-05-05T08:36:51.472Z,67.20
2023-05-05T08:39:18.095Z,63.90
2023-05-05T08:41:44.721Z,63.70
2023-05-05T08:44:11.769Z,62.60
2023-05-05T08:46:38.849Z,62.30
2023-05-05T08:49:05.685Z,62.30
2023-05-05T08:51:37.612Z,62.80
2023-05-05T08:54:05.754Z,62.90
2023-05-05T08:56:33.447Z,61.80
2023-05-05T08:59:01.580Z,61.80
2023-05-05T09:01:28.640Z,61.60
2023-05-05T09:03:55.321Z,62.60
2023-05-05T09:06:23.347Z,62.60
2023-05-05T09:08:50.521Z,61.00
2023-05-05T09:11:17.085Z,60.30
2023-05-05T09:13:43.932Z,61.00
2023-05-05T09:16:10.550Z,59.60
2023-05-05T09:18:37.398Z,60.10
2023-05-05T09:21:18.630Z,60.30
2023-05-05T09:24:08.083Z,60.70
2023-05-05T09:26:39.512Z,59.50
2023-05-05T09:29:06.230Z,61.30
2023-05-05T09:31:36.385Z,59.40
2023-05-05T09:34:16.567Z,59.30
2023-05-05T09:36:47.948Z,59.90
2023-05-05T09:39:17.397Z,59.60
2023-05-05T09:41:44.324Z,58.70
2023-05-05T09:44:12.222Z,60.30
2023-05-05T09:46:39.180Z,59.00
2023-05-05T09:49:26.965Z,57.80
2023-05-05T09:51:54.214Z,58.50
2023-05-05T09:54:30.537Z,57.70
2023-05-05T09:56:57.517Z,58.10
2023-05-05T09:59:24.436Z,57.20
2023-05-05T10:01:51.385Z,56.40
2023-05-05T10:04:28.315Z,54.40
2023-05-05T10:06:55.774Z,54.30
2023-05-05T10:09:23.128Z,55.60
2023-05-05T10:11:50.069Z,55.60
2023-05-05T10:14:17.912Z,54.80
2023-05-05T10:16:47.527Z,55.70
2023-05-05T10:19:15.010Z,55.60
2023-05-05T10:21:46.366Z,56.30
2023-05-05T10:24:27.827Z,55.20
2023-05-05T10:26:56.337Z,55.30
2023-05-05T10:29:36.677Z,55.10
2023-05-05T10:32:40.633Z,53.30
2023-05-05T10:35:02.987Z,53.10
2023-05-05T10:37:29.939Z,53.20
2023-05-05T10:39:59.716Z,53.40
2023-05-05T10:42:27.716Z,53.60
2023-05-05T10:44:54.618Z,53.10
2023-05-05T10:47:22.338Z,52.80
2023-05-05T10:50:27.429Z,53.60
2023-05-05T10:52:58.413Z,53.70
2023-05-05T10:55:36.805Z,52.00
2023-05-05T10:58:05.367Z,50.40
2023-05-05T11:00:37.785Z,50.60
2023-05-05T11:03:16.701Z,51.90
2023-05-05T11:06:01.683Z,51.70
2023-05-05T11:08:28.319Z,50.70
2023-05-05T11:10:54.929Z,51.70
2023-05-05T11:13:21.752Z,50.10
2023-05-05T11:15:51.233Z,50.60
2023-05-05T11:18:31.166Z,50.00
2023-05-05T11:20:57.774Z,48.90
2023-05-05T11:23:24.883Z,48.80
2023-05-05T11:25:52.040Z,48.70
2023-05-05T11:28:19.944Z,50.40
2023-05-05T11:30:59.171Z,49.00
2023-05-05T11:33:30.131Z,48.30
2023-05-05T11:35:57.742Z,49.20
2023-05-05T11:38:50.789Z,50.20
2023-05-05T11:41:26.713Z,47.60
2023-05-05T11:44:17.196Z,48.50
2023-05-05T11:46:52.810Z,48.70
2023-05-05T11:49:29.245Z,48.20
2023-05-05T11:51:59.719Z,49.60
2023-05-05T11:54:26.944Z,50.60
2023-05-05T11:56:54.280Z,49.40
2023-05-05T11:59:20.970Z,48.80
2023-05-05T12:01:47.678Z,49.80
2023-05-05T12:04:14.789Z,49.50
2023-05-05T12:06:42.015Z,49.00
2023-05-05T12:09:19.036Z,48.90
2023-05-05T12:11:55.570Z,46.80
2023-05-05T12:14:22.647Z,49.30
2023-05-05T12:17:04.099Z,49.60
2023-05-05T12:19:33.303Z,49.30
2023-05-05T12:22:03.979Z,48.50
2023-05-05T12:24:30.744Z,49.90
2023-05-05T12:27:10.607Z,49.60
2023-05-05T12:29:37.388Z,48.40
2023-05-05T12:32:04.399Z,48.70
2023-05-05T12:34:31.428Z,48.10
2023-05-05T12:36:58.113Z,50.70
2023-05-05T12:39:34.180Z,50.80
2023-05-05T12:42:04.440Z,48.80
2023-05-05T12:44:40.306Z,49.90
2023-05-05T12:47:07.212Z,48.70
2023-05-05T12:49:45.873Z,49.90
2023-05-05T12:52:12.669Z,49.30
2023-05-05T12:54:52.374Z,49.80
2023-05-05T12:57:20.150Z,48.30
2023-05-05T12:59:46.729Z,51.10
2023-05-05T13:02:13.438Z,50.50
2023-05-05T13:04:49.126Z,51.80
2023-05-05T13:07:16.738Z,50.80
2023-05-05T13:09:43.359Z,51.40
2023-05-05T13:12:11.953Z,50.30
2023-05-05T13:14:39.101Z,50.80
2023-05-05T13:17:05.772Z,50.80
2023-05-05T13:19:32.445Z,51.10
2023-05-05T13:21:59.119Z,51.50
2023-05-05T13:24:38.075Z,52.30
2023-05-05T13:27:09.348Z,53.80
2023-05-05T13:29:36.030Z,51.80
2023-05-05T13:32:02.922Z,51.90
2023-05-05T13:34:29.676Z,50.80
2023-05-05T13:36:56.311Z,52.50
2023-05-05T13:39:22.923Z,52.70
2023-05-05T13:41:49.609Z,52.60
2023-05-05T13:44:16.318Z,52.20
2023-05-05T13:46:43.072Z,52.20
2023-05-05T13:49:09.827Z,51.20
2023-05-05T13:51:38.133Z,52.90
2023-05-05T13:54:05.335Z,52.30
2023-05-05T13:56:32.641Z,54.00
2023-05-05T13:58:59.483Z,53.10
2023-05-05T14:01:26.144Z,52.30
2023-05-05T14:03:53.307Z,53.00
2023-05-05T14:06:21.071Z,52.20
2023-05-05T14:08:47.890Z,52.40
2023-05-05T14:11:17.010Z,52.90
2023-05-05T14:13:44.664Z,52.20
2023-05-05T14:16:11.316Z,52.80
2023-05-05T14:18:38.013Z,52.80
2023-05-05T14:21:04.593Z,53.10
2023-05-05T14:23:31.850Z,52.60
2023-05-05T14:25:58.503Z,53.00
2023-05-05T14:28:25.152Z,53.10
2023-05-05T14:30:52.029Z,53.80
2023-05-05T14:33:18.618Z,52.10
2023-05-05T14:35:45.226Z,53.00
2023-05-05T14:38:11.927Z,53.30
2023-05-05T14:40:38.529Z,52.90
2023-05-05T14:43:05.170Z,52.50
2023-05-05T14:45:31.907Z,52.40
2023-05-05T14:47:58.538Z,54.40
2023-05-05T14:50:25.252Z,52.90
2023-05-05T14:52:51.832Z,52.70
2023-05-05T14:55:18.486Z,52.70
2023-05-05T14:57:45.051Z,52.70
2023-05-05T15:00:11.930Z,52.40
2023-05-05T15:02:38.670Z,52.00
2023-05-05T15:05:05.475Z,52.30
2023-05-05T15:07:32.137Z,52.40
2023-05-05T15:09:58.741Z,52.70
2023-05-05T15:12:25.993Z,52.30
2023-05-05T15:14:52.795Z,52.10
2023-05-05T15:17:19.561Z,51.60
2023-05-05T15:19:46.201Z,52.80
2023-05-05T15:22:12.833Z,51.40
2023-05-05T15:24:39.452Z,51.40
2023-05-05T15:27:06.159Z,51.20
2023-05-05T15:29:32.858Z,51.80
2023-05-05T15:31:59.519Z,51.40
2023-05-05T15:34:26.670Z,51.50
2023-05-05T15:36:53.307Z,51.30
2023-05-05T15:39:20.032Z,51.00
2023-05-05T15:41:46.653Z,51.80
2023-05-05T15:44:13.381Z,52.60
2023-05-05T15:46:40.812Z,53.60
2023-05-05T15:49:07.443Z,53.40
2023-05-05T15:51:34.003Z,53.90
2023-05-05T15:54:00.653Z,55.20
2023-05-05T15:56:27.529Z,55.20
2023-05-05T15:58:54.333Z,55.80
2023-05-05T16:01:21.112Z,55.20
2023-05-05T16:03:47.796Z,55.60
2023-05-05T16:06:14.407Z,56.00
2023-05-05T16:08:41.125Z,56.00
2023-05-05T16:11:07.740Z,56.20
2023-05-05T16:13:34.406Z,56.90
2023-05-05T16:16:01.383Z,56.40
2023-05-05T16:18:27.975Z,57.40
2023-05-05T16:20:54.546Z,58.20
2023-05-05T16:23:21.160Z,58.10
2023-05-05T16:25:47.731Z,58.20
2023-05-05T16:28:14.421Z,58.20
2023-05-05T16:30:42.753Z,58.10
2023-05-05T16:33:09.686Z,57.70
2023-05-05T16:35:39.157Z,58.00
2023-05-05T16:38:05.818Z,58.40
2023-05-05T16:40:32.407Z,58.50
2023-05-05T16:42:58.984Z,58.80
2023-05-05T16:45:25.622Z,59.10
2023-05-05T16:47:52.249Z,59.50
2023-05-05T16:50:18.969Z,59.90
2023-05-05T16:52:45.924Z,60.40
2023-05-05T16:55:12.619Z,60.30
2023-05-05T16:57:39.224Z,60.00
2023-05-05T17:00:06.384Z,60.60
2023-05-05T17:02:33.192Z,60.20
2023-05-05T17:04:59.804Z,60.70
2023-05-05T17:07:26.501Z,60.70
2023-05-05T17:09:53.160Z,60.40
2023-05-05T17:12:19.728Z,60.00
2023-05-05T17:14:46.363Z,61.00
2023-05-05T17:17:13.146Z,60.70
2023-05-05T17:19:39.772Z,60.40
2023-05-05T17:22:06.470Z,61.30
2023-05-05T17:24:33.139Z,61.60
2023-05-05T17:26:59.756Z,61.90
2023-05-05T17:29:26.505Z,61.70
2023-05-05T17:31:54.125Z,61.80
2023-05-05T17:34:20.932Z,61.60
2023-05-05T17:36:47.547Z,61.70
2023-05-05T17:39:14.134Z,63.00
2023-05-05T17:41:42.375Z,61.90
2023-05-05T17:44:09.035Z,62.60
2023-05-05T17:46:36.224Z,62.40
2023-05-05T17:49:02.891Z,62.80
2023-05-05T17:51:29.601Z,63.10
2023-05-05T17:53:56.209Z,64.60
2023-05-05T17:56:23.030Z,63.50
2023-05-05T17:58:49.659Z,63.60
2023-05-05T18:01:22.762Z,63.50
2023-05-05T18:03:49.530Z,64.20
2023-05-05T18:06:16.282Z,63.90
2023-05-05T18:08:43.023Z,65.00
2023-05-05T18:11:09.619Z,64.60
2023-05-05T18:13:36.597Z,64.90
2023-05-05T18:16:03.690Z,64.90
2023-05-05T18:18:30.344Z,65.00
2023-05-05T18:20:56.903Z,65.30
2023-05-05T18:23:23.536Z,65.80
2023-05-05T18:25:50.146Z,65.70
2023-05-05T18:28:16.910Z,65.70
2023-05-05T18:30:43.489Z,66.00
2023-05-05T18:33:10.184Z,66.10
2023-05-05T18:35:37.092Z,66.10
2023-05-05T18:38:03.919Z,66.00
2023-05-05T18:40:31.516Z,66.90
2023-05-05T18:42:58.133Z,67.30
2023-05-05T18:45:24.743Z,67.40
2023-05-05T18:47:51.408Z,67.40
2023-05-05T18:50:18.008Z,67.80
2023-05-05T18:52:44.603Z,68.90
2023-05-05T18:55:11.585Z,68.40
2023-05-05T18:57:38.491Z,67.90
2023-05-05T19:00:05.366Z,68.10
2023-05-05T19:02:32.014Z,68.20
2023-05-05T19:04:58.603Z,68.50
2023-05-05T19:07:35.032Z,68.10
2023-05-05T19:10:03.995Z,68.00
2023-05-05T19:12:30.658Z,68.10
2023-05-05T19:14:57.275Z,68.40
2023-05-05T19:17:23.965Z,67.90
2023-05-05T19:19:52.771Z,67.80
2023-05-05T19:22:20.583Z,67.90
2023-05-05T19:24:47.260Z,67.90
2023-05-05T19:27:17.113Z,68.10
2023-05-05T19:29:43.931Z,68.40
2023-05-05T19:32:10.768Z,68.30
2023-05-05T19:34:37.485Z,68.60
2023-05-05T19:37:04.120Z,68.60
2023-05-05T19:39:31.204Z,68.20
2023-05-05T19:41:57.826Z,68.50
2023-05-05T19:44:24.477Z,68.40
2023-05-05T19:46:52.335Z,68.10
2023-05-05T19:49:19.008Z,68.10
2023-05-05T19:51:47.541Z,68.00
2023-05-05T19:54:14.192Z,68.90
2023-05-05T19:56:40.801Z,68.90
2023-05-05T19:59:07.502Z,69.70
2023-05-05T20:01:34.902Z,69.40
2023-05-05T20:04:03.109Z,69.00
2023-05-05T20:06:29.750Z,68.70
2023-05-05T20:08:56.496Z,69.20
2023-05-05T20:11:23.153Z,69.30
2023-05-05T20:13:50.066Z,69.20
2023-05-05T20:16:16.845Z,69.50
2023-05-05T20:18:43.797Z,69.60
2023-05-05T20:21:10.543Z,70.00
2023-05-05T20:23:37.245Z,70.60
2023-05-05T20:26:03.956Z,69.70
2023-05-05T20:28:31.590Z,69.90
2023-05-05T20:30:58.383Z,70.10
2023-05-05T20:33:25.311Z,70.20
2023-05-05T20:35:51.933Z,70.40
2023-05-05T20:38:18.630Z,70.30
2023-05-05T20:40:45.648Z,70.30
2023-05-05T20:43:13.614Z,70.50
2023-05-05T20:45:40.269Z,71.10
2023-05-05T20:48:09.869Z,71.20
2023-05-05T20:50:39.875Z,70.90
2023-05-05T20:53:07.816Z,70.90
2023-05-05T20:55:34.653Z,71.00
2023-05-05T20:58:01.438Z,71.00
2023-05-05T21:00:30.833Z,70.40
2023-05-05T21:02:57.520Z,71.50
2023-05-05T21:05:24.232Z,71.60
2023-05-05T21:07:53.043Z,72.00
2023-05-05T21:10:19.694Z,71.60
2023-05-05T21:12:46.322Z,71.40
2023-05-05T21:15:12.897Z,70.80
2023-05-05T21:17:39.938Z,70.80
2023-05-05T21:20:06.975Z,70.80
2023-05-05T21:22:33.754Z,70.60
2023-05-05T21:25:14.073Z,71.00
2023-05-05T21:27:40.804Z,71.40
2023-05-05T21:30:10.602Z,70.70
2023-05-05T21:32:38.193Z,70.80
2023-05-05T21:35:05.943Z,70.80
2023-05-05T21:37:32.705Z,70.70
2023-05-05T21:39:59.267Z,69.90
2023-05-05T21:42:26.752Z,70.60
2023-05-05T21:44:53.393Z,70.80
2023-05-05T21:47:20.004Z,71.00
2023-05-05T21:49:46.695Z,70.50
2023-05-05T21:52:13.291Z,70.40
2023-05-05T21:54:40.699Z,71.20
2023-05-05T21:57:07.368Z,71.40
2023-05-05T21:59:34.241Z,72.60
2023-05-05T22:02:00.821Z,72.10
2023-05-05T22:04:27.400Z,72.00
2023-05-05T22:06:54.069Z,72.10
2023-05-05T22:09:20.906Z,72.10
2023-05-05T22:11:47.570Z,72.30
2023-05-05T22:14:15.333Z,72.60
2023-05-05T22:16:42.197Z,72.70
2023-05-05T22:19:08.940Z,73.10
2023-05-05T22:21:35.490Z,72.90
2023-05-05T22:24:02.190Z,73.40
2023-05-05T22:26:28.785Z,73.90
2023-05-05T22:28:55.428Z,74.10
2023-05-05T22:31:22.113Z,73.50
2023-05-05T22:33:48.705Z,73.60
2023-05-05T22:36:15.395Z,73.30
2023-05-05T22:38:42.181Z,73.40
2023-05-05T22:41:08.848Z,74.30
2023-05-05T22:43:35.749Z,76.20
2023-05-05T22:46:02.472Z,75.20
2023-05-05T22:48:29.053Z,75.60
2023-05-05T22:50:57.056Z,75.20
2023-05-05T22:53:23.725Z,75.50
2023-05-05T22:55:51.562Z,75.50
2023-05-05T22:58:18.344Z,76.70
2023-05-05T23:00:44.970Z,78.20
2023-05-05T23:03:11.899Z,77.90
2023-05-05T23:05:38.511Z,78.30
2023-05-05T23:08:05.129Z,77.80
2023-05-05T23:10:31.910Z,78.50
2023-05-05T23:12:58.521Z,77.70
2023-05-05T23:15:25.221Z,77.30
2023-05-05T23:17:51.912Z,77.70
2023-05-05T23:20:18.581Z,77.50
2023-05-05T23:22:45.188Z,78.30
2023-05-05T23:25:12.319Z,77.60
2023-05-05T23:27:40.010Z,78.30
2023-05-05T23:30:07.656Z,78.50
2023-05-05T23:32:34.291Z,78.50
2023-05-05T23:35:01.288Z,79.10
2023-05-05T23:37:27.915Z,80.00
2023-05-05T23:39:54.510Z,81.20
2023-05-05T23:42:21.133Z,81.10
2023-05-05T23:44:47.680Z,81.60
2023-05-05T23:47:14.263Z,82.20
2023-05-05T23:49:40.887Z,81.80
2023-05-05T23:52:07.622Z,83.10
2023-05-05T23:54:34.279Z,84.60
2023-05-05T23:57:00.871Z,85.80
2023-05-05T23:59:27.487Z,85.40
